sensor_id;sensor_type;location;lat;lon;timestamp;temperature;humidity
26336;DHT22;14047;50.936;4.654;2022-09-09T00:04:15;15.70;99.90
26336;DHT22;14047;50.936;4.654;2022-09-09T00:09:23;15.70;99.90
26336;DHT22;14047;50.936;4.654;2022-09-09T00:15:00;15.70;99.90
26336;DHT22;14047;50.936;4.654;2022-09-09T00:17:45;15.80;99.90
26336;DHT22;14047;50.936;4.654;2022-09-09T00:22:50;15.80;99.90
26336;DHT22;14047;50.936;4.654;2022-09-09T00:26:11;15.80;99.90
26336;DHT22;14047;50.936;4.654;2022-09-09T00:28:23;15.80;99.90
26336;DHT22;14047;50.936;4.654;2022-09-09T00:30:50;15.80;99.90
26336;DHT22;14047;50.936;4.654;2022-09-09T00:33:18;15.80;99.90
26336;DHT22;14047;50.936;4.654;2022-09-09T00:35:49;15.90;99.90
26336;DHT22;14047;50.936;4.654;2022-09-09T00:38:35;15.90;99.90
26336;DHT22;14047;50.936;4.654;2022-09-09T00:41:16;15.90;99.90
26336;DHT22;14047;50.936;4.654;2022-09-09T00:43:57;16.00;99.90
26336;DHT22;14047;50.936;4.654;2022-09-09T00:50:34;16.10;99.90
26336;DHT22;14047;50.936;4.654;2022-09-09T00:57:58;15.80;99.90
26336;DHT22;14047;50.936;4.654;2022-09-09T01:00:30;15.90;99.90
26336;DHT22;14047;50.936;4.654;2022-09-09T01:03:18;16.10;99.90
26336;DHT22;14047;50.936;4.654;2022-09-09T01:11:55;16.30;99.90
26336;DHT22;14047;50.936;4.654;2022-09-09T01:22:18;16.40;99.90
26336;DHT22;14047;50.936;4.654;2022-09-09T01:25:09;16.40;99.90
26336;DHT22;14047;50.936;4.654;2022-09-09T01:27:38;16.50;99.90
26336;DHT22;14047;50.936;4.654;2022-09-09T01:30:13;16.40;99.90
26336;DHT22;14047;50.936;4.654;2022-09-09T01:32:45;16.40;99.90
26336;DHT22;14047;50.936;4.654;2022-09-09T01:35:22;16.30;99.90
26336;DHT22;14047;50.936;4.654;2022-09-09T01:37:52;16.30;99.90
26336;DHT22;14047;50.936;4.654;2022-09-09T01:40:18;16.30;99.90
26336;DHT22;14047;50.936;4.654;2022-09-09T01:42:44;16.40;99.90
26336;DHT22;14047;50.936;4.654;2022-09-09T01:45:09;16.40;99.90
26336;DHT22;14047;50.936;4.654;2022-09-09T01:47:35;16.40;99.90
26336;DHT22;14047;50.936;4.654;2022-09-09T01:50:02;16.40;99.90
26336;DHT22;14047;50.936;4.654;2022-09-09T01:52:29;16.30;99.90
26336;DHT22;14047;50.936;4.654;2022-09-09T01:54:55;16.30;99.90
26336;DHT22;14047;50.936;4.654;2022-09-09T01:57:46;16.20;99.90
26336;DHT22;14047;50.936;4.654;2022-09-09T02:00:13;16.20;99.90
26336;DHT22;14047;50.936;4.654;2022-09-09T02:02:58;16.20;99.90
26336;DHT22;14047;50.936;4.654;2022-09-09T02:05:32;16.10;99.90
26336;DHT22;14047;50.936;4.654;2022-09-09T02:08:20;16.00;99.90
26336;DHT22;14047;50.936;4.654;2022-09-09T02:10:58;16.00;99.90
26336;DHT22;14047;50.936;4.654;2022-09-09T02:13:29;15.90;99.90
26336;DHT22;14047;50.936;4.654;2022-09-09T02:21:30;16.00;99.90
26336;DHT22;14047;50.936;4.654;2022-09-09T02:23:58;16.10;99.90
26336;DHT22;14047;50.936;4.654;2022-09-09T02:26:26;15.90;99.90
26336;DHT22;14047;50.936;4.654;2022-09-09T02:28:55;16.00;99.90
26336;DHT22;14047;50.936;4.654;2022-09-09T02:31:24;16.00;99.90
26336;DHT22;14047;50.936;4.654;2022-09-09T02:33:58;16.00;99.90
26336;DHT22;14047;50.936;4.654;2022-09-09T02:36:28;16.10;99.90
26336;DHT22;14047;50.936;4.654;2022-09-09T02:38:55;16.00;99.90
26336;DHT22;14047;50.936;4.654;2022-09-09T02:41:26;16.00;99.90
26336;DHT22;14047;50.936;4.654;2022-09-09T02:43:53;15.90;99.90
26336;DHT22;14047;50.936;4.654;2022-09-09T02:46:36;15.90;99.90
26336;DHT22;14047;50.936;4.654;2022-09-09T02:49:11;15.90;99.90
26336;DHT22;14047;50.936;4.654;2022-09-09T02:51:53;15.90;99.90
26336;DHT22;14047;50.936;4.654;2022-09-09T02:54:32;16.00;99.90
26336;DHT22;14047;50.936;4.654;2022-09-09T02:57:22;16.00;99.90
26336;DHT22;14047;50.936;4.654;2022-09-09T02:59:49;16.00;99.90
26336;DHT22;14047;50.936;4.654;2022-09-09T03:02:15;16.00;99.90
26336;DHT22;14047;50.936;4.654;2022-09-09T03:04:41;16.10;99.90
26336;DHT22;14047;50.936;4.654;2022-09-09T03:07:10;16.10;99.90
26336;DHT22;14047;50.936;4.654;2022-09-09T03:09:36;16.10;99.90
26336;DHT22;14047;50.936;4.654;2022-09-09T03:12:01;16.20;99.90
26336;DHT22;14047;50.936;4.654;2022-09-09T03:14:29;16.20;99.90
26336;DHT22;14047;50.936;4.654;2022-09-09T03:16:56;16.20;99.90
26336;DHT22;14047;50.936;4.654;2022-09-09T03:19:26;16.10;99.90
26336;DHT22;14047;50.936;4.654;2022-09-09T03:21:51;16.10;99.90
26336;DHT22;14047;50.936;4.654;2022-09-09T03:24:17;16.20;99.90
26336;DHT22;14047;50.936;4.654;2022-09-09T03:26:43;16.10;99.90
26336;DHT22;14047;50.936;4.654;2022-09-09T03:29:11;16.20;99.90
26336;DHT22;14047;50.936;4.654;2022-09-09T03:31:38;16.20;99.90
26336;DHT22;14047;50.936;4.654;2022-09-09T03:34:04;16.20;99.90
26336;DHT22;14047;50.936;4.654;2022-09-09T03:36:30;16.20;99.90
26336;DHT22;14047;50.936;4.654;2022-09-09T03:38:55;16.20;99.90
26336;DHT22;14047;50.936;4.654;2022-09-09T03:41:22;16.20;99.90
26336;DHT22;14047;50.936;4.654;2022-09-09T03:43:53;16.10;99.90
26336;DHT22;14047;50.936;4.654;2022-09-09T03:46:24;16.10;99.90
26336;DHT22;14047;50.936;4.654;2022-09-09T03:48:50;16.20;99.90
26336;DHT22;14047;50.936;4.654;2022-09-09T03:51:17;16.10;99.90
26336;DHT22;14047;50.936;4.654;2022-09-09T03:53:44;16.20;99.90
26336;DHT22;14047;50.936;4.654;2022-09-09T03:56:10;16.10;99.90
26336;DHT22;14047;50.936;4.654;2022-09-09T03:58:36;16.10;99.90
26336;DHT22;14047;50.936;4.654;2022-09-09T04:01:10;16.10;99.90
26336;DHT22;14047;50.936;4.654;2022-09-09T04:03:39;16.00;99.90
26336;DHT22;14047;50.936;4.654;2022-09-09T04:06:06;16.10;99.90
26336;DHT22;14047;50.936;4.654;2022-09-09T04:08:33;16.10;99.90
26336;DHT22;14047;50.936;4.654;2022-09-09T04:10:59;16.10;99.90
26336;DHT22;14047;50.936;4.654;2022-09-09T04:13:27;16.10;99.90
26336;DHT22;14047;50.936;4.654;2022-09-09T04:16:01;16.10;99.90
26336;DHT22;14047;50.936;4.654;2022-09-09T04:18:27;16.10;99.90
26336;DHT22;14047;50.936;4.654;2022-09-09T04:20:56;15.90;99.90
26336;DHT22;14047;50.936;4.654;2022-09-09T04:23:24;15.90;99.90
26336;DHT22;14047;50.936;4.654;2022-09-09T04:25:51;15.80;99.90
26336;DHT22;14047;50.936;4.654;2022-09-09T04:28:19;15.80;99.90
26336;DHT22;14047;50.936;4.654;2022-09-09T04:30:46;15.90;99.90
26336;DHT22;14047;50.936;4.654;2022-09-09T04:33:12;16.00;99.90
26336;DHT22;14047;50.936;4.654;2022-09-09T04:35:39;16.00;99.90
26336;DHT22;14047;50.936;4.654;2022-09-09T04:38:09;16.10;99.90
26336;DHT22;14047;50.936;4.654;2022-09-09T04:40:35;16.10;99.90
26336;DHT22;14047;50.936;4.654;2022-09-09T04:43:01;16.20;99.90
26336;DHT22;14047;50.936;4.654;2022-09-09T04:45:29;16.30;99.90
26336;DHT22;14047;50.936;4.654;2022-09-09T04:47:55;16.30;99.90
26336;DHT22;14047;50.936;4.654;2022-09-09T04:50:21;16.20;99.90
26336;DHT22;14047;50.936;4.654;2022-09-09T04:52:46;16.30;99.90
26336;DHT22;14047;50.936;4.654;2022-09-09T04:55:12;16.20;99.90
26336;DHT22;14047;50.936;4.654;2022-09-09T04:57:39;16.20;99.90
26336;DHT22;14047;50.936;4.654;2022-09-09T05:00:05;16.20;99.90
26336;DHT22;14047;50.936;4.654;2022-09-09T05:02:30;16.10;99.90
26336;DHT22;14047;50.936;4.654;2022-09-09T05:04:58;16.10;99.90
26336;DHT22;14047;50.936;4.654;2022-09-09T05:07:24;16.10;99.90
26336;DHT22;14047;50.936;4.654;2022-09-09T05:09:51;16.10;99.90
26336;DHT22;14047;50.936;4.654;2022-09-09T05:12:17;16.20;99.90
26336;DHT22;14047;50.936;4.654;2022-09-09T05:14:43;16.10;99.90
26336;DHT22;14047;50.936;4.654;2022-09-09T05:17:10;16.00;99.90
26336;DHT22;14047;50.936;4.654;2022-09-09T05:19:36;16.00;99.90
26336;DHT22;14047;50.936;4.654;2022-09-09T05:22:02;16.00;99.90
26336;DHT22;14047;50.936;4.654;2022-09-09T05:24:28;16.10;99.90
26336;DHT22;14047;50.936;4.654;2022-09-09T05:26:53;16.10;99.90
26336;DHT22;14047;50.936;4.654;2022-09-09T05:29:19;16.00;99.90
26336;DHT22;14047;50.936;4.654;2022-09-09T05:31:45;16.00;99.90
26336;DHT22;14047;50.936;4.654;2022-09-09T05:34:12;16.00;99.90
26336;DHT22;14047;50.936;4.654;2022-09-09T05:36:38;16.10;99.90
26336;DHT22;14047;50.936;4.654;2022-09-09T05:39:03;16.20;99.90
26336;DHT22;14047;50.936;4.654;2022-09-09T05:41:29;16.20;99.90
26336;DHT22;14047;50.936;4.654;2022-09-09T05:43:56;16.30;99.90
26336;DHT22;14047;50.936;4.654;2022-09-09T05:46:23;16.50;99.90
26336;DHT22;14047;50.936;4.654;2022-09-09T05:48:50;16.40;99.90
26336;DHT22;14047;50.936;4.654;2022-09-09T05:51:22;16.60;99.90
26336;DHT22;14047;50.936;4.654;2022-09-09T05:53:48;16.70;99.90
26336;DHT22;14047;50.936;4.654;2022-09-09T05:56:17;16.90;99.90
26336;DHT22;14047;50.936;4.654;2022-09-09T05:58:43;17.00;99.90
26336;DHT22;14047;50.936;4.654;2022-09-09T06:01:14;17.20;99.90
26336;DHT22;14047;50.936;4.654;2022-09-09T06:03:42;17.20;99.90
26336;DHT22;14047;50.936;4.654;2022-09-09T06:06:10;17.40;99.90
26336;DHT22;14047;50.936;4.654;2022-09-09T06:08:38;17.50;99.90
26336;DHT22;14047;50.936;4.654;2022-09-09T06:11:07;17.50;99.90
26336;DHT22;14047;50.936;4.654;2022-09-09T06:13:34;17.50;99.90
26336;DHT22;14047;50.936;4.654;2022-09-09T06:16:03;17.50;99.90
26336;DHT22;14047;50.936;4.654;2022-09-09T06:18:29;17.50;99.90
26336;DHT22;14047;50.936;4.654;2022-09-09T06:21:00;17.50;99.90
26336;DHT22;14047;50.936;4.654;2022-09-09T06:23:27;17.40;99.90
26336;DHT22;14047;50.936;4.654;2022-09-09T06:26:18;17.40;99.90
26336;DHT22;14047;50.936;4.654;2022-09-09T06:28:46;17.40;99.90
26336;DHT22;14047;50.936;4.654;2022-09-09T06:31:14;17.40;99.90
26336;DHT22;14047;50.936;4.654;2022-09-09T06:33:41;17.60;99.90
26336;DHT22;14047;50.936;4.654;2022-09-09T06:36:13;17.60;99.90
26336;DHT22;14047;50.936;4.654;2022-09-09T06:38:40;17.60;99.90
26336;DHT22;14047;50.936;4.654;2022-09-09T06:41:08;17.60;99.90
26336;DHT22;14047;50.936;4.654;2022-09-09T06:43:34;17.60;99.90
26336;DHT22;14047;50.936;4.654;2022-09-09T06:48:27;17.60;99.90
26336;DHT22;14047;50.936;4.654;2022-09-09T06:51:08;17.70;99.90
26336;DHT22;14047;50.936;4.654;2022-09-09T06:53:35;17.90;99.90
26336;DHT22;14047;50.936;4.654;2022-09-09T06:56:02;17.90;99.90
26336;DHT22;14047;50.936;4.654;2022-09-09T06:58:42;18.10;99.90
26336;DHT22;14047;50.936;4.654;2022-09-09T07:01:10;18.10;99.90
26336;DHT22;14047;50.936;4.654;2022-09-09T07:03:38;18.20;99.90
26336;DHT22;14047;50.936;4.654;2022-09-09T07:06:05;18.10;99.90
26336;DHT22;14047;50.936;4.654;2022-09-09T07:08:31;18.20;99.90
26336;DHT22;14047;50.936;4.654;2022-09-09T07:11:04;18.10;99.90
26336;DHT22;14047;50.936;4.654;2022-09-09T07:13:30;18.10;99.90
26336;DHT22;14047;50.936;4.654;2022-09-09T07:16:07;18.10;99.90
26336;DHT22;14047;50.936;4.654;2022-09-09T07:18:34;18.10;99.90
26336;DHT22;14047;50.936;4.654;2022-09-09T07:21:00;18.20;99.90
26336;DHT22;14047;50.936;4.654;2022-09-09T07:23:26;18.10;99.90
26336;DHT22;14047;50.936;4.654;2022-09-09T07:25:52;18.10;99.90
26336;DHT22;14047;50.936;4.654;2022-09-09T07:28:21;18.20;99.90
26336;DHT22;14047;50.936;4.654;2022-09-09T07:30:58;18.20;99.90
26336;DHT22;14047;50.936;4.654;2022-09-09T07:33:25;18.30;99.90
26336;DHT22;14047;50.936;4.654;2022-09-09T07:35:52;18.40;99.90
26336;DHT22;14047;50.936;4.654;2022-09-09T07:38:19;18.50;99.90
26336;DHT22;14047;50.936;4.654;2022-09-09T07:40:45;18.50;99.90
26336;DHT22;14047;50.936;4.654;2022-09-09T07:43:10;18.60;99.90
26336;DHT22;14047;50.936;4.654;2022-09-09T07:45:37;18.70;99.90
26336;DHT22;14047;50.936;4.654;2022-09-09T07:48:03;18.70;99.90
26336;DHT22;14047;50.936;4.654;2022-09-09T07:50:29;18.60;99.90
26336;DHT22;14047;50.936;4.654;2022-09-09T07:52:55;18.60;99.90
26336;DHT22;14047;50.936;4.654;2022-09-09T07:55:21;18.70;99.90
26336;DHT22;14047;50.936;4.654;2022-09-09T07:57:50;18.80;99.90
26336;DHT22;14047;50.936;4.654;2022-09-09T08:00:17;18.80;99.90
26336;DHT22;14047;50.936;4.654;2022-09-09T08:02:44;18.60;99.90
26336;DHT22;14047;50.936;4.654;2022-09-09T08:05:09;18.70;99.90
26336;DHT22;14047;50.936;4.654;2022-09-09T08:07:35;18.70;99.90
26336;DHT22;14047;50.936;4.654;2022-09-09T08:10:02;18.70;99.90
26336;DHT22;14047;50.936;4.654;2022-09-09T08:12:28;18.80;99.90
26336;DHT22;14047;50.936;4.654;2022-09-09T08:14:53;18.80;99.90
26336;DHT22;14047;50.936;4.654;2022-09-09T08:17:19;18.80;99.90
26336;DHT22;14047;50.936;4.654;2022-09-09T08:19:45;18.60;99.90
26336;DHT22;14047;50.936;4.654;2022-09-09T08:22:11;18.70;99.90
26336;DHT22;14047;50.936;4.654;2022-09-09T08:24:36;18.80;99.90
26336;DHT22;14047;50.936;4.654;2022-09-09T08:27:02;18.80;99.90
26336;DHT22;14047;50.936;4.654;2022-09-09T08:29:28;19.00;99.90
26336;DHT22;14047;50.936;4.654;2022-09-09T08:31:57;19.30;99.90
26336;DHT22;14047;50.936;4.654;2022-09-09T08:34:24;19.20;99.90
26336;DHT22;14047;50.936;4.654;2022-09-09T08:36:52;19.50;99.90
26336;DHT22;14047;50.936;4.654;2022-09-09T08:39:20;19.70;99.90
26336;DHT22;14047;50.936;4.654;2022-09-09T08:55:28;19.50;99.90
26336;DHT22;14047;50.936;4.654;2022-09-09T08:57:57;19.40;99.90
26336;DHT22;14047;50.936;4.654;2022-09-09T09:00:40;19.50;99.90
26336;DHT22;14047;50.936;4.654;2022-09-09T09:03:52;19.50;99.90
26336;DHT22;14047;50.936;4.654;2022-09-09T09:11:51;19.20;99.90
26336;DHT22;14047;50.936;4.654;2022-09-09T09:14:22;19.40;99.90
26336;DHT22;14047;50.936;4.654;2022-09-09T09:19:29;19.20;99.90
26336;DHT22;14047;50.936;4.654;2022-09-09T09:24:56;19.30;99.90
26336;DHT22;14047;50.936;4.654;2022-09-09T09:30:22;19.50;99.90
26336;DHT22;14047;50.936;4.654;2022-09-09T09:33:12;19.60;99.90
26336;DHT22;14047;50.936;4.654;2022-09-09T09:35:40;19.70;99.90
26336;DHT22;14047;50.936;4.654;2022-09-09T09:38:24;19.60;99.90
26336;DHT22;14047;50.936;4.654;2022-09-09T09:40:57;19.30;99.90
26336;DHT22;14047;50.936;4.654;2022-09-09T09:43:37;19.40;99.90
26336;DHT22;14047;50.936;4.654;2022-09-09T09:46:05;19.30;99.90
26336;DHT22;14047;50.936;4.654;2022-09-09T09:48:43;18.90;99.90
26336;DHT22;14047;50.936;4.654;2022-09-09T09:51:13;19.00;99.90
26336;DHT22;14047;50.936;4.654;2022-09-09T09:53:41;19.30;99.90
26336;DHT22;14047;50.936;4.654;2022-09-09T09:56:14;19.50;99.90
26336;DHT22;14047;50.936;4.654;2022-09-09T10:01:29;19.60;99.90
26336;DHT22;14047;50.936;4.654;2022-09-09T10:04:22;19.50;99.90
26336;DHT22;14047;50.936;4.654;2022-09-09T10:06:49;19.40;99.90
26336;DHT22;14047;50.936;4.654;2022-09-09T10:09:29;19.60;99.90
26336;DHT22;14047;50.936;4.654;2022-09-09T10:17:57;19.40;99.90
26336;DHT22;14047;50.936;4.654;2022-09-09T10:23:35;19.20;99.90
26336;DHT22;14047;50.936;4.654;2022-09-09T10:32:24;19.20;99.90
26336;DHT22;14047;50.936;4.654;2022-09-09T10:35:13;19.10;99.90
26336;DHT22;14047;50.936;4.654;2022-09-09T10:40:46;19.20;99.90
26336;DHT22;14047;50.936;4.654;2022-09-09T10:43:30;19.30;99.90
26336;DHT22;14047;50.936;4.654;2022-09-09T10:46:20;19.30;99.90
26336;DHT22;14047;50.936;4.654;2022-09-09T10:57:17;20.60;99.90
26336;DHT22;14047;50.936;4.654;2022-09-09T10:59:49;20.60;99.90
26336;DHT22;14047;50.936;4.654;2022-09-09T11:02:27;20.60;99.90
26336;DHT22;14047;50.936;4.654;2022-09-09T11:05:00;20.40;99.90
26336;DHT22;14047;50.936;4.654;2022-09-09T11:07:44;20.10;99.90
26336;DHT22;14047;50.936;4.654;2022-09-09T11:10:29;20.30;99.90
26336;DHT22;14047;50.936;4.654;2022-09-09T11:13:01;20.70;99.90
26336;DHT22;14047;50.936;4.654;2022-09-09T11:15:36;20.90;99.90
26336;DHT22;14047;50.936;4.654;2022-09-09T11:18:13;21.00;99.90
26336;DHT22;14047;50.936;4.654;2022-09-09T11:20:40;20.70;99.90
26336;DHT22;14047;50.936;4.654;2022-09-09T11:23:17;20.10;99.90
26336;DHT22;14047;50.936;4.654;2022-09-09T11:25:54;20.10;99.90
26336;DHT22;14047;50.936;4.654;2022-09-09T11:36:26;20.60;99.90
26336;DHT22;14047;50.936;4.654;2022-09-09T11:39:12;20.30;99.90
26336;DHT22;14047;50.936;4.654;2022-09-09T11:41:43;19.90;99.90
26336;DHT22;14047;50.936;4.654;2022-09-09T11:44:18;19.80;99.90
26336;DHT22;14047;50.936;4.654;2022-09-09T11:46:49;19.80;99.90
26336;DHT22;14047;50.936;4.654;2022-09-09T11:49:39;19.70;99.90
26336;DHT22;14047;50.936;4.654;2022-09-09T11:52:36;19.60;99.90
26336;DHT22;14047;50.936;4.654;2022-09-09T11:55:10;19.90;99.90
26336;DHT22;14047;50.936;4.654;2022-09-09T11:57:39;19.90;99.90
26336;DHT22;14047;50.936;4.654;2022-09-09T12:00:05;19.60;99.90
26336;DHT22;14047;50.936;4.654;2022-09-09T12:02:31;19.60;99.90
26336;DHT22;14047;50.936;4.654;2022-09-09T12:05:13;19.70;99.90
26336;DHT22;14047;50.936;4.654;2022-09-09T12:07:50;19.90;99.90
26336;DHT22;14047;50.936;4.654;2022-09-09T12:10:20;20.00;99.90
26336;DHT22;14047;50.936;4.654;2022-09-09T12:12:47;19.90;99.90
26336;DHT22;14047;50.936;4.654;2022-09-09T12:15:20;20.00;99.90
26336;DHT22;14047;50.936;4.654;2022-09-09T12:17:47;20.10;99.90
26336;DHT22;14047;50.936;4.654;2022-09-09T12:20:22;20.10;99.90
26336;DHT22;14047;50.936;4.654;2022-09-09T12:23:24;20.10;99.90
26336;DHT22;14047;50.936;4.654;2022-09-09T12:28:45;19.80;99.90
26336;DHT22;14047;50.936;4.654;2022-09-09T12:31:44;19.70;99.90
26336;DHT22;14047;50.936;4.654;2022-09-09T12:34:33;19.70;99.90
26336;DHT22;14047;50.936;4.654;2022-09-09T12:40:00;20.30;99.90
26336;DHT22;14047;50.936;4.654;2022-09-09T12:42:27;20.50;99.90
26336;DHT22;14047;50.936;4.654;2022-09-09T12:44:58;20.30;99.90
26336;DHT22;14047;50.936;4.654;2022-09-09T12:47:40;20.00;99.90
26336;DHT22;14047;50.936;4.654;2022-09-09T12:50:24;19.80;99.90
26336;DHT22;14047;50.936;4.654;2022-09-09T12:52:59;19.50;99.90
26336;DHT22;14047;50.936;4.654;2022-09-09T12:55:31;19.70;99.90
26336;DHT22;14047;50.936;4.654;2022-09-09T12:57:59;19.90;99.90
26336;DHT22;14047;50.936;4.654;2022-09-09T13:00:26;20.20;99.90
26336;DHT22;14047;50.936;4.654;2022-09-09T13:02:58;20.50;99.90
26336;DHT22;14047;50.936;4.654;2022-09-09T13:05:25;20.40;99.90
26336;DHT22;14047;50.936;4.654;2022-09-09T13:07:52;20.40;99.90
26336;DHT22;14047;50.936;4.654;2022-09-09T13:10:29;20.40;99.90
26336;DHT22;14047;50.936;4.654;2022-09-09T13:12:56;20.50;99.90
26336;DHT22;14047;50.936;4.654;2022-09-09T13:15:26;20.50;99.90
26336;DHT22;14047;50.936;4.654;2022-09-09T13:18:06;20.40;99.90
26336;DHT22;14047;50.936;4.654;2022-09-09T13:20:36;20.40;99.90
26336;DHT22;14047;50.936;4.654;2022-09-09T13:23:02;20.70;99.90
26336;DHT22;14047;50.936;4.654;2022-09-09T13:25:29;21.00;99.90
26336;DHT22;14047;50.936;4.654;2022-09-09T13:28:03;21.10;99.90
26336;DHT22;14047;50.936;4.654;2022-09-09T13:30:32;21.40;99.90
26336;DHT22;14047;50.936;4.654;2022-09-09T13:33:05;21.40;99.90
26336;DHT22;14047;50.936;4.654;2022-09-09T13:35:32;21.10;99.90
26336;DHT22;14047;50.936;4.654;2022-09-09T13:37:59;20.80;99.90
26336;DHT22;14047;50.936;4.654;2022-09-09T13:40:31;20.50;99.90
26336;DHT22;14047;50.936;4.654;2022-09-09T13:42:58;20.50;99.90
26336;DHT22;14047;50.936;4.654;2022-09-09T13:45:25;20.60;99.90
26336;DHT22;14047;50.936;4.654;2022-09-09T13:47:53;20.80;99.90
26336;DHT22;14047;50.936;4.654;2022-09-09T13:50:29;20.90;99.90
26336;DHT22;14047;50.936;4.654;2022-09-09T13:52:57;20.80;99.90
26336;DHT22;14047;50.936;4.654;2022-09-09T13:55:25;20.60;99.90
26336;DHT22;14047;50.936;4.654;2022-09-09T13:57:56;20.40;99.90
26336;DHT22;14047;50.936;4.654;2022-09-09T14:00:23;20.50;99.90
26336;DHT22;14047;50.936;4.654;2022-09-09T14:02:49;20.70;99.90
26336;DHT22;14047;50.936;4.654;2022-09-09T14:05:16;21.00;99.90
26336;DHT22;14047;50.936;4.654;2022-09-09T14:07:43;21.40;99.90
26336;DHT22;14047;50.936;4.654;2022-09-09T14:10:10;21.70;99.90
26336;DHT22;14047;50.936;4.654;2022-09-09T14:12:36;21.70;99.90
26336;DHT22;14047;50.936;4.654;2022-09-09T14:15:03;21.60;99.90
26336;DHT22;14047;50.936;4.654;2022-09-09T14:17:29;21.70;99.90
26336;DHT22;14047;50.936;4.654;2022-09-09T14:19:55;21.70;99.90
26336;DHT22;14047;50.936;4.654;2022-09-09T14:22:22;21.60;99.90
26336;DHT22;14047;50.936;4.654;2022-09-09T14:24:48;21.20;99.90
26336;DHT22;14047;50.936;4.654;2022-09-09T14:27:14;21.20;99.90
26336;DHT22;14047;50.936;4.654;2022-09-09T14:29:39;21.30;99.90
26336;DHT22;14047;50.936;4.654;2022-09-09T14:32:05;21.30;99.90
26336;DHT22;14047;50.936;4.654;2022-09-09T14:34:31;21.40;99.90
26336;DHT22;14047;50.936;4.654;2022-09-09T14:36:58;21.50;99.90
26336;DHT22;14047;50.936;4.654;2022-09-09T14:39:23;21.30;99.90
26336;DHT22;14047;50.936;4.654;2022-09-09T14:41:49;21.20;99.90
26336;DHT22;14047;50.936;4.654;2022-09-09T14:44:15;21.00;99.90
26336;DHT22;14047;50.936;4.654;2022-09-09T14:46:41;21.00;99.90
26336;DHT22;14047;50.936;4.654;2022-09-09T14:49:08;21.00;99.90
26336;DHT22;14047;50.936;4.654;2022-09-09T14:51:36;21.00;99.90
26336;DHT22;14047;50.936;4.654;2022-09-09T14:54:02;20.90;99.90
26336;DHT22;14047;50.936;4.654;2022-09-09T14:56:30;21.10;99.90
26336;DHT22;14047;50.936;4.654;2022-09-09T14:58:58;21.00;99.90
26336;DHT22;14047;50.936;4.654;2022-09-09T15:01:26;21.40;99.90
26336;DHT22;14047;50.936;4.654;2022-09-09T15:03:57;22.00;99.90
26336;DHT22;14047;50.936;4.654;2022-09-09T15:06:24;22.30;99.90
26336;DHT22;14047;50.936;4.654;2022-09-09T15:08:52;22.40;99.90
26336;DHT22;14047;50.936;4.654;2022-09-09T15:11:19;22.10;99.90
26336;DHT22;14047;50.936;4.654;2022-09-09T15:13:46;21.90;99.90
26336;DHT22;14047;50.936;4.654;2022-09-09T15:16:17;21.80;99.90
26336;DHT22;14047;50.936;4.654;2022-09-09T15:18:44;21.60;99.90
26336;DHT22;14047;50.936;4.654;2022-09-09T15:21:16;21.80;99.90
26336;DHT22;14047;50.936;4.654;2022-09-09T15:23:42;21.60;99.90
26336;DHT22;14047;50.936;4.654;2022-09-09T15:26:08;21.40;99.90
26336;DHT22;14047;50.936;4.654;2022-09-09T15:28:36;21.50;99.90
26336;DHT22;14047;50.936;4.654;2022-09-09T15:31:09;22.10;99.90
26336;DHT22;14047;50.936;4.654;2022-09-09T15:33:35;22.80;99.90
26336;DHT22;14047;50.936;4.654;2022-09-09T15:38:38;23.50;99.90
26336;DHT22;14047;50.936;4.654;2022-09-09T15:41:04;23.90;99.90
26336;DHT22;14047;50.936;4.654;2022-09-09T15:43:30;23.90;99.90
26336;DHT22;14047;50.936;4.654;2022-09-09T15:46:02;23.50;99.90
26336;DHT22;14047;50.936;4.654;2022-09-09T15:48:31;22.70;99.90
26336;DHT22;14047;50.936;4.654;2022-09-09T15:51:02;22.10;99.90
26336;DHT22;14047;50.936;4.654;2022-09-09T15:53:29;21.80;99.90
26336;DHT22;14047;50.936;4.654;2022-09-09T15:55:55;21.50;99.90
26336;DHT22;14047;50.936;4.654;2022-09-09T15:58:21;21.20;99.90
26336;DHT22;14047;50.936;4.654;2022-09-09T16:00:46;21.30;99.90
26336;DHT22;14047;50.936;4.654;2022-09-09T16:03:13;21.40;99.90
26336;DHT22;14047;50.936;4.654;2022-09-09T16:05:38;21.20;99.90
26336;DHT22;14047;50.936;4.654;2022-09-09T16:08:04;21.10;99.90
26336;DHT22;14047;50.936;4.654;2022-09-09T16:10:29;21.30;99.90
26336;DHT22;14047;50.936;4.654;2022-09-09T16:12:56;21.30;99.90
26336;DHT22;14047;50.936;4.654;2022-09-09T16:15:21;21.30;99.90
26336;DHT22;14047;50.936;4.654;2022-09-09T16:17:48;21.30;99.90
26336;DHT22;14047;50.936;4.654;2022-09-09T16:20:14;21.40;99.90
26336;DHT22;14047;50.936;4.654;2022-09-09T16:22:40;21.60;99.90
26336;DHT22;14047;50.936;4.654;2022-09-09T16:25:06;21.50;99.90
26336;DHT22;14047;50.936;4.654;2022-09-09T16:27:32;21.20;99.90
26336;DHT22;14047;50.936;4.654;2022-09-09T16:29:57;20.90;99.90
26336;DHT22;14047;50.936;4.654;2022-09-09T16:32:24;20.90;99.90
26336;DHT22;14047;50.936;4.654;2022-09-09T16:34:50;20.70;99.90
26336;DHT22;14047;50.936;4.654;2022-09-09T16:37:16;20.50;99.90
26336;DHT22;14047;50.936;4.654;2022-09-09T16:39:43;20.40;99.90
26336;DHT22;14047;50.936;4.654;2022-09-09T16:42:08;20.30;99.90
26336;DHT22;14047;50.936;4.654;2022-09-09T16:44:35;20.30;99.90
26336;DHT22;14047;50.936;4.654;2022-09-09T16:47:01;20.20;99.90
26336;DHT22;14047;50.936;4.654;2022-09-09T16:49:27;20.20;99.90
26336;DHT22;14047;50.936;4.654;2022-09-09T16:51:53;20.10;99.90
26336;DHT22;14047;50.936;4.654;2022-09-09T16:54:19;20.00;99.90
26336;DHT22;14047;50.936;4.654;2022-09-09T16:56:47;20.00;99.90
26336;DHT22;14047;50.936;4.654;2022-09-09T16:59:18;20.20;99.90
26336;DHT22;14047;50.936;4.654;2022-09-09T17:01:45;20.10;99.90
26336;DHT22;14047;50.936;4.654;2022-09-09T17:04:16;20.20;99.90
26336;DHT22;14047;50.936;4.654;2022-09-09T17:06:46;20.20;99.90
26336;DHT22;14047;50.936;4.654;2022-09-09T17:09:15;20.20;99.90
26336;DHT22;14047;50.936;4.654;2022-09-09T17:11:41;20.20;99.90
26336;DHT22;14047;50.936;4.654;2022-09-09T17:14:09;20.40;99.90
26336;DHT22;14047;50.936;4.654;2022-09-09T17:16:36;20.50;99.90
26336;DHT22;14047;50.936;4.654;2022-09-09T17:19:05;20.70;99.90
26336;DHT22;14047;50.936;4.654;2022-09-09T17:21:32;20.70;99.90
26336;DHT22;14047;50.936;4.654;2022-09-09T17:23:58;20.80;99.90
26336;DHT22;14047;50.936;4.654;2022-09-09T17:26:27;21.20;99.90
26336;DHT22;14047;50.936;4.654;2022-09-09T17:28:54;21.30;99.90
26336;DHT22;14047;50.936;4.654;2022-09-09T17:31:21;21.10;99.90
26336;DHT22;14047;50.936;4.654;2022-09-09T17:33:49;21.20;99.90
26336;DHT22;14047;50.936;4.654;2022-09-09T17:36:16;21.40;99.90
26336;DHT22;14047;50.936;4.654;2022-09-09T17:38:43;20.80;99.90
26336;DHT22;14047;50.936;4.654;2022-09-09T17:41:26;20.60;99.90
26336;DHT22;14047;50.936;4.654;2022-09-09T17:43:53;20.70;99.90